createdAt,value
2022-09-16T00:00:45.787Z,13.55
2022-09-16T00:03:14.433Z,13.54
2022-09-16T00:05:43.377Z,13.41
2022-09-16T00:08:13.201Z,13.38
2022-09-16T00:10:41.256Z,13.46
2022-09-16T00:13:09.250Z,13.45
2022-09-16T00:15:37.482Z,13.42
2022-09-16T00:18:05.700Z,13.40
2022-09-16T00:20:33.534Z,13.41
2022-09-16T00:23:01.365Z,13.37
2022-09-16T00:25:30.717Z,13.31
2022-09-16T00:27:58.567Z,13.31
2022-09-16T00:30:26.467Z,13.31
2022-09-16T00:32:54.485Z,13.25
2022-09-16T00:35:22.983Z,13.22
2022-09-16T00:37:50.836Z,13.31
2022-09-16T00:40:19.115Z,13.44
2022-09-16T00:42:48.360Z,13.51
2022-09-16T00:45:19.033Z,13.56
2022-09-16T00:47:52.196Z,13.63
2022-09-16T00:50:24.038Z,13.68
2022-09-16T00:52:55.016Z,13.69
2022-09-16T00:55:26.970Z,13.64
2022-09-16T00:57:58.600Z,13.66
2022-09-16T01:00:26.808Z,13.74
2022-09-16T01:02:54.723Z,13.75
2022-09-16T01:05:25.886Z,13.71
2022-09-16T01:07:55.536Z,13.66
2022-09-16T01:10:25.332Z,13.65
2022-09-16T01:12:58.376Z,13.73
2022-09-16T01:15:33.200Z,13.75
2022-09-16T01:18:12.450Z,13.77
2022-09-16T01:21:19.012Z,13.81
2022-09-16T01:24:35.366Z,13.76
2022-09-16T01:27:31.567Z,13.76
2022-09-16T01:30:35.088Z,13.81
2022-09-16T01:33:09.100Z,13.75
2022-09-16T01:35:49.127Z,13.77
2022-09-16T01:38:30.137Z,13.74
2022-09-16T01:41:08.225Z,13.59
2022-09-16T01:43:48.622Z,13.53
2022-09-16T01:46:24.150Z,13.58
2022-09-16T01:48:59.937Z,13.61
2022-09-16T01:51:32.904Z,13.57
2022-09-16T01:54:08.332Z,13.49
2022-09-16T01:56:44.112Z,13.36
2022-09-16T01:59:18.879Z,13.31
2022-09-16T02:01:54.374Z,13.25
2022-09-16T02:04:27.740Z,13.19
2022-09-16T02:06:58.657Z,13.11
2022-09-16T02:09:32.097Z,13.13
2022-09-16T02:12:05.762Z,13.11
2022-09-16T02:14:36.643Z,13.09
2022-09-16T02:17:08.352Z,13.08
2022-09-16T02:19:41.861Z,13.01
2022-09-16T02:22:14.411Z,12.97
2022-09-16T02:24:46.044Z,12.95
2022-09-16T02:27:18.175Z,13.00
2022-09-16T02:29:50.560Z,12.93
2022-09-16T02:32:21.594Z,12.88
2022-09-16T02:34:54.745Z,12.87
2022-09-16T02:37:28.359Z,12.93
2022-09-16T02:40:02.446Z,12.97
2022-09-16T02:42:31.312Z,13.03
2022-09-16T02:45:00.519Z,13.12
2022-09-16T02:47:33.144Z,13.18
2022-09-16T02:50:11.173Z,13.20
2022-09-16T02:52:45.586Z,13.17
2022-09-16T02:55:21.652Z,13.08
2022-09-16T02:57:50.702Z,13.08
2022-09-16T03:00:18.806Z,13.03
2022-09-16T03:02:46.720Z,13.06
2022-09-16T03:05:16.089Z,13.10
2022-09-16T03:07:44.336Z,13.01
2022-09-16T03:10:15.137Z,12.93
2022-09-16T03:12:57.940Z,12.89
2022-09-16T03:15:38.178Z,12.93
2022-09-16T03:18:23.946Z,13.02
2022-09-16T03:21:01.305Z,12.97
2022-09-16T03:23:43.339Z,13.03
2022-09-16T03:26:20.977Z,13.01
2022-09-16T03:28:57.596Z,12.98
2022-09-16T03:31:29.606Z,12.95
2022-09-16T03:34:06.957Z,12.92
2022-09-16T03:36:40.773Z,12.91
2022-09-16T03:39:11.423Z,12.79
2022-09-16T03:41:39.608Z,12.79
2022-09-16T03:44:07.475Z,12.70
2022-09-16T03:46:35.707Z,12.69
2022-09-16T03:49:04.002Z,12.64
2022-09-16T03:51:31.942Z,12.64
2022-09-16T03:54:01.275Z,12.57
2022-09-16T03:56:29.215Z,12.58
2022-09-16T03:58:57.097Z,12.58
2022-09-16T04:01:25.129Z,12.59
2022-09-16T04:03:53.432Z,12.47
2022-09-16T04:06:21.328Z,12.64
2022-09-16T04:08:50.805Z,12.70
2022-09-16T04:11:20.164Z,12.82
2022-09-16T04:13:47.987Z,12.88
2022-09-16T04:16:21.336Z,12.93
2022-09-16T04:18:49.823Z,12.97
2022-09-16T04:21:18.440Z,12.98
2022-09-16T04:23:46.621Z,12.98
2022-09-16T04:26:14.587Z,12.83
2022-09-16T04:28:44.379Z,12.72
2022-09-16T04:31:14.058Z,12.65
2022-09-16T04:33:42.435Z,12.66
2022-09-16T04:36:12.656Z,12.71
2022-09-16T04:38:41.444Z,12.62
2022-09-16T04:41:11.546Z,12.63
2022-09-16T04:43:39.938Z,12.61
2022-09-16T04:46:10.526Z,12.59
2022-09-16T04:48:39.048Z,12.51
2022-09-16T04:51:08.820Z,12.58
2022-09-16T04:53:37.086Z,12.66
2022-09-16T04:56:07.206Z,12.71
2022-09-16T04:58:35.563Z,12.73
2022-09-16T05:01:12.862Z,12.80
2022-09-16T05:03:41.356Z,12.82
2022-09-16T05:06:11.251Z,12.96
2022-09-16T05:08:39.757Z,12.98
2022-09-16T05:11:10.078Z,13.02
2022-09-16T05:13:38.668Z,12.98
2022-09-16T05:16:08.251Z,12.97
2022-09-16T05:18:38.287Z,12.98
2022-09-16T05:21:08.709Z,12.93
2022-09-16T05:23:37.994Z,12.87
2022-09-16T05:26:08.577Z,12.84
2022-09-16T05:28:37.224Z,12.77
2022-09-16T05:31:12.862Z,12.76
2022-09-16T05:33:44.951Z,12.61
2022-09-16T05:36:15.571Z,12.69
2022-09-16T05:38:59.091Z,12.81
2022-09-16T05:41:32.005Z,13.00
2022-09-16T05:44:00.578Z,13.20
2022-09-16T05:46:29.603Z,13.20
2022-09-16T05:48:59.183Z,13.28
2022-09-16T05:51:27.310Z,13.21
2022-09-16T05:53:56.643Z,13.15
2022-09-16T05:56:26.906Z,13.20
2022-09-16T05:58:55.924Z,13.09
2022-09-16T06:01:26.210Z,13.02
2022-09-16T06:03:55.174Z,12.94
2022-09-16T06:06:26.819Z,13.05
2022-09-16T06:08:56.618Z,13.14
2022-09-16T06:11:25.751Z,13.22
2022-09-16T06:13:56.584Z,13.28
2022-09-16T06:16:26.660Z,13.33
2022-09-16T06:18:55.514Z,13.17
2022-09-16T06:21:25.170Z,13.16
2022-09-16T06:23:53.655Z,13.12
2022-09-16T06:26:23.478Z,13.21
2022-09-16T06:28:53.030Z,13.14
2022-09-16T06:31:27.018Z,13.15
2022-09-16T06:33:55.983Z,13.00
2022-09-16T06:36:28.829Z,13.16
2022-09-16T06:38:57.264Z,13.37
2022-09-16T06:41:25.986Z,13.51
2022-09-16T06:43:54.085Z,13.52
2022-09-16T06:46:24.069Z,13.49
2022-09-16T06:48:53.759Z,13.54
2022-09-16T06:51:24.211Z,13.55
2022-09-16T06:53:55.279Z,13.62
2022-09-16T06:56:23.476Z,13.65
2022-09-16T06:58:53.120Z,13.60
2022-09-16T07:01:22.263Z,13.61
2022-09-16T07:03:52.074Z,13.57
2022-09-16T07:06:21.793Z,13.71
2022-09-16T07:08:50.051Z,13.73
2022-09-16T07:11:20.770Z,14.05
2022-09-16T07:13:49.861Z,14.15
2022-09-16T07:16:19.529Z,14.24
2022-09-16T07:18:48.582Z,14.20
2022-09-16T07:21:18.131Z,14.44
2022-09-16T07:23:47.068Z,14.54
2022-09-16T07:26:17.211Z,14.82
2022-09-16T07:28:48.081Z,16.57
2022-09-16T07:31:18.993Z,17.71
2022-09-16T07:33:49.729Z,18.76
2022-09-16T07:36:19.804Z,20.25
2022-09-16T07:38:48.174Z,21.23
2022-09-16T07:41:18.362Z,21.80
2022-09-16T07:43:48.241Z,22.36
2022-09-16T07:46:17.893Z,22.88
2022-09-16T07:48:46.860Z,23.81
2022-09-16T07:51:17.011Z,23.76
2022-09-16T07:53:45.497Z,23.84
2022-09-16T07:56:15.388Z,24.64
2022-09-16T07:58:45.173Z,25.21
2022-09-16T08:01:16.193Z,25.28
2022-09-16T08:03:45.257Z,25.16
2022-09-16T08:06:14.942Z,23.42
2022-09-16T08:08:43.340Z,22.44
2022-09-16T08:11:12.719Z,21.71
2022-09-16T08:13:41.421Z,20.23
2022-09-16T08:16:12.473Z,20.54
2022-09-16T08:18:42.154Z,21.08
2022-09-16T08:21:11.695Z,22.53
2022-09-16T08:23:40.789Z,23.92
2022-09-16T08:26:10.678Z,24.29
2022-09-16T08:28:50.957Z,24.72
2022-09-16T08:31:25.829Z,25.45
2022-09-16T08:33:55.098Z,26.00
2022-09-16T08:36:24.888Z,25.27
2022-09-16T08:38:55.704Z,24.79
2022-09-16T08:41:42.946Z,24.68
2022-09-16T08:44:21.543Z,25.08
2022-09-16T08:46:54.433Z,23.55
2022-09-16T08:49:31.796Z,22.76
2022-09-16T08:52:03.033Z,21.89
2022-09-16T08:54:35.881Z,20.70
2022-09-16T08:57:06.747Z,20.13
2022-09-16T08:59:40.993Z,19.77
2022-09-16T09:02:25.489Z,19.53
2022-09-16T09:04:55.366Z,19.24
2022-09-16T09:07:34.014Z,19.05
2022-09-16T09:10:16.086Z,19.84
2022-09-16T09:12:50.465Z,20.28
2022-09-16T09:15:31.348Z,20.65
2022-09-16T09:18:15.292Z,20.68
2022-09-16T09:20:54.519Z,20.31
2022-09-16T09:23:51.681Z,20.09
2022-09-16T09:26:23.419Z,20.64
2022-09-16T09:29:19.339Z,19.98
2022-09-16T09:31:57.110Z,19.12
2022-09-16T09:34:41.036Z,18.53
2022-09-16T09:37:30.681Z,17.90
2022-09-16T09:40:08.263Z,17.49
2022-09-16T09:42:40.515Z,17.39
2022-09-16T09:45:20.288Z,17.79
2022-09-16T09:47:52.025Z,17.78
2022-09-16T09:50:23.978Z,17.76
2022-09-16T09:52:59.092Z,17.96
2022-09-16T09:55:28.874Z,17.97
2022-09-16T09:58:05.526Z,18.34
2022-09-16T10:00:33.851Z,18.53
2022-09-16T10:03:08.946Z,18.55
2022-09-16T10:05:36.879Z,18.64
2022-09-16T10:08:27.186Z,18.64
2022-09-16T10:10:57.045Z,18.78
2022-09-16T10:13:26.814Z,19.00
2022-09-16T10:15:56.720Z,19.24
2022-09-16T10:18:27.667Z,19.29
2022-09-16T10:21:05.310Z,19.20
2022-09-16T10:23:36.177Z,19.07
2022-09-16T10:26:21.341Z,19.09
2022-09-16T10:29:01.471Z,18.94
2022-09-16T10:31:35.777Z,18.90
2022-09-16T10:34:05.807Z,18.76
2022-09-16T10:36:36.136Z,18.73
2022-09-16T10:39:06.892Z,18.27
2022-09-16T10:41:41.809Z,18.46
2022-09-16T10:44:17.683Z,18.51
2022-09-16T10:46:53.546Z,18.45
2022-09-16T10:49:26.609Z,18.51
2022-09-16T10:51:54.501Z,18.72
2022-09-16T10:54:29.476Z,18.49
2022-09-16T10:56:57.479Z,18.79
2022-09-16T10:59:25.381Z,18.99
2022-09-16T11:02:05.773Z,18.82
2022-09-16T11:04:47.928Z,18.61
2022-09-16T11:07:28.442Z,18.67
2022-09-16T11:10:09.382Z,18.47
2022-09-16T11:13:10.396Z,18.57
2022-09-16T11:15:50.666Z,18.78
2022-09-16T11:18:31.525Z,18.51
2022-09-16T11:21:14.967Z,18.16
2022-09-16T11:24:03.180Z,17.66
2022-09-16T11:26:40.794Z,17.15
2022-09-16T11:29:27.467Z,16.85
2022-09-16T11:32:03.979Z,16.63
2022-09-16T11:34:44.812Z,16.64
2022-09-16T11:37:23.844Z,16.52
2022-09-16T11:40:06.659Z,16.24
2022-09-16T11:42:41.739Z,16.52
2022-09-16T11:45:25.470Z,16.81
2022-09-16T11:48:16.171Z,17.02
2022-09-16T11:50:50.856Z,17.16
2022-09-16T11:53:39.627Z,17.13
2022-09-16T11:56:15.443Z,17.31
2022-09-16T11:58:48.291Z,17.43
2022-09-16T12:01:27.939Z,17.47
2022-09-16T12:04:03.426Z,17.46
2022-09-16T12:06:39.440Z,17.48
2022-09-16T12:09:13.960Z,17.59
2022-09-16T12:11:46.029Z,18.03
2022-09-16T12:14:19.780Z,18.38
2022-09-16T12:16:51.797Z,18.53
2022-09-16T12:19:24.992Z,18.60
2022-09-16T12:21:58.425Z,18.74
2022-09-16T12:24:37.685Z,18.47
2022-09-16T12:27:10.868Z,18.43
2022-09-16T12:29:49.805Z,17.61
2022-09-16T12:32:24.222Z,16.93
2022-09-16T12:35:00.782Z,16.71
2022-09-16T12:37:36.379Z,16.59
2022-09-16T12:40:07.454Z,16.59
2022-09-16T12:43:08.043Z,16.72
2022-09-16T12:45:58.233Z,17.05
2022-09-16T12:48:47.519Z,17.17
2022-09-16T12:51:38.837Z,17.21
2022-09-16T12:55:07.288Z,17.32
2022-09-16T12:57:46.423Z,17.35
2022-09-16T13:00:20.308Z,17.17
2022-09-16T13:02:53.417Z,16.91
2022-09-16T13:05:33.055Z,16.51
2022-09-16T13:08:06.783Z,16.69
2022-09-16T13:11:00.692Z,16.61
2022-09-16T13:13:33.906Z,16.41
2022-09-16T13:16:04.292Z,16.35
2022-09-16T13:18:45.184Z,16.38
2022-09-16T13:21:25.787Z,16.32
2022-09-16T13:24:02.458Z,16.05
2022-09-16T13:26:40.432Z,15.84
2022-09-16T13:29:31.973Z,15.77
2022-09-16T13:32:00.053Z,15.82
2022-09-16T13:34:30.177Z,15.81
2022-09-16T13:36:58.631Z,15.91
2022-09-16T13:39:31.027Z,15.98
2022-09-16T13:42:10.457Z,16.06
2022-09-16T13:44:43.287Z,16.03
2022-09-16T13:47:17.443Z,15.82
2022-09-16T13:49:51.609Z,15.73
2022-09-16T13:52:22.988Z,15.70
2022-09-16T13:55:09.846Z,15.56
2022-09-16T13:57:49.528Z,15.28
2022-09-16T14:00:22.172Z,15.19
2022-09-16T14:03:16.630Z,15.13
2022-09-16T14:06:11.404Z,14.94
2022-09-16T14:08:51.641Z,14.86
2022-09-16T14:11:29.944Z,14.77
2022-09-16T14:14:05.834Z,14.55
2022-09-16T14:16:37.149Z,14.37
2022-09-16T14:19:08.224Z,14.20
2022-09-16T14:21:38.561Z,13.95
2022-09-16T14:24:17.740Z,13.96
2022-09-16T14:26:53.603Z,13.82
2022-09-16T14:29:22.698Z,13.81
2022-09-16T14:31:53.768Z,13.82
2022-09-16T14:34:28.647Z,13.70
2022-09-16T14:36:58.296Z,13.41
2022-09-16T14:39:28.892Z,13.37
2022-09-16T14:41:59.574Z,13.27
2022-09-16T14:44:33.933Z,13.32
2022-09-16T14:47:09.461Z,13.36
2022-09-16T14:49:41.054Z,13.19
2022-09-16T14:52:20.849Z,13.25
2022-09-16T14:54:48.970Z,13.13
2022-09-16T14:57:20.770Z,13.25
2022-09-16T14:59:48.913Z,13.30
2022-09-16T15:02:22.205Z,13.25
2022-09-16T15:04:53.836Z,13.32
2022-09-16T15:07:25.438Z,13.35
2022-09-16T15:09:57.200Z,13.35
2022-09-16T15:12:29.464Z,13.34
2022-09-16T15:14:57.881Z,13.30
2022-09-16T15:17:29.166Z,13.32
2022-09-16T15:20:00.356Z,13.40
2022-09-16T15:22:29.724Z,13.45
2022-09-16T15:24:59.672Z,13.35
2022-09-16T15:27:29.868Z,13.50
2022-09-16T15:30:00.328Z,13.34
2022-09-16T15:32:31.950Z,13.50
2022-09-16T15:35:21.295Z,13.52
2022-09-16T15:37:51.366Z,13.50
2022-09-16T15:40:33.941Z,13.67
2022-09-16T15:43:04.994Z,13.90
2022-09-16T15:45:33.106Z,14.11
2022-09-16T15:48:03.213Z,14.05
2022-09-16T15:50:39.549Z,14.09
2022-09-16T15:53:12.115Z,14.02
2022-09-16T15:55:52.301Z,14.16
2022-09-16T15:58:39.698Z,14.16
2022-09-16T16:01:13.337Z,14.12
2022-09-16T16:03:53.097Z,14.12
2022-09-16T16:06:21.466Z,14.09
2022-09-16T16:08:52.220Z,14.24
2022-09-16T16:11:22.082Z,14.37
2022-09-16T16:13:51.296Z,14.46
2022-09-16T16:16:19.962Z,14.48
2022-09-16T16:18:48.082Z,14.50
2022-09-16T16:21:17.795Z,14.62
2022-09-16T16:23:45.625Z,14.75
2022-09-16T16:26:15.058Z,14.82
2022-09-16T16:28:42.890Z,14.90
2022-09-16T16:31:12.676Z,14.78
2022-09-16T16:33:44.643Z,14.86
2022-09-16T16:36:13.747Z,14.96
2022-09-16T16:38:41.730Z,14.99
2022-09-16T16:41:12.388Z,15.05
2022-09-16T16:43:41.921Z,15.01
2022-09-16T16:46:09.876Z,15.09
2022-09-16T16:48:39.273Z,15.19
2022-09-16T16:51:09.255Z,15.18
2022-09-16T16:53:37.658Z,15.16
2022-09-16T16:56:10.271Z,15.25
2022-09-16T16:58:43.581Z,15.27
2022-09-16T17:01:13.238Z,15.23
2022-09-16T17:03:41.734Z,15.38
2022-09-16T17:06:10.133Z,15.47
2022-09-16T17:08:38.421Z,15.52
2022-09-16T17:11:08.082Z,15.57
2022-09-16T17:13:35.903Z,15.42
2022-09-16T17:16:05.584Z,15.36
2022-09-16T17:18:35.171Z,15.40
2022-09-16T17:21:05.095Z,15.44
2022-09-16T17:23:33.528Z,15.41
2022-09-16T17:26:01.814Z,15.35
2022-09-16T17:28:30.177Z,15.39
2022-09-16T17:30:58.440Z,15.38
2022-09-16T17:33:27.910Z,15.35
2022-09-16T17:36:02.879Z,15.38
2022-09-16T17:38:30.745Z,15.29
2022-09-16T17:41:04.170Z,15.26
2022-09-16T17:43:32.970Z,15.18
2022-09-16T17:46:01.512Z,15.15
2022-09-16T17:48:31.991Z,15.17
2022-09-16T17:51:00.462Z,15.12
2022-09-16T17:53:28.397Z,15.07
2022-09-16T17:56:04.019Z,15.06
2022-09-16T17:58:32.016Z,15.00
2022-09-16T18:01:06.355Z,14.98
2022-09-16T18:03:36.410Z,14.98
2022-09-16T18:06:09.275Z,14.93
2022-09-16T18:08:38.131Z,14.88
2022-09-16T18:11:07.191Z,14.86
2022-09-16T18:13:36.047Z,14.92
2022-09-16T18:16:05.925Z,14.86
2022-09-16T18:18:36.852Z,14.87
2022-09-16T18:21:06.070Z,14.87
2022-09-16T18:23:34.341Z,14.83
2022-09-16T18:26:06.406Z,14.86
2022-09-16T18:28:58.098Z,14.79
2022-09-16T18:31:25.105Z,14.85
2022-09-16T18:33:55.179Z,14.85
2022-09-16T18:36:25.488Z,14.84
2022-09-16T18:38:54.228Z,14.78
2022-09-16T18:41:23.826Z,14.86
2022-09-16T18:43:54.837Z,14.92
2022-09-16T18:46:26.756Z,14.95
2022-09-16T18:48:57.019Z,15.01
2022-09-16T18:51:27.518Z,15.09
2022-09-16T18:53:57.970Z,15.08
2022-09-16T18:56:26.920Z,15.07
2022-09-16T18:59:19.916Z,15.10
2022-09-16T19:01:48.694Z,15.09
2022-09-16T19:04:20.142Z,15.11
2022-09-16T19:06:50.463Z,15.10
2022-09-16T19:09:20.164Z,15.12
2022-09-16T19:11:48.272Z,15.12
2022-09-16T19:14:16.262Z,15.11
2022-09-16T19:16:46.278Z,15.08
2022-09-16T19:19:16.510Z,15.04
2022-09-16T19:21:45.782Z,15.04
2022-09-16T19:24:16.393Z,15.00
2022-09-16T19:26:45.429Z,14.92
2022-09-16T19:29:14.778Z,14.84
2022-09-16T19:31:45.297Z,14.79
2022-09-16T19:34:13.622Z,14.81
2022-09-16T19:36:41.921Z,14.70
2022-09-16T19:39:12.555Z,14.66
2022-09-16T19:41:42.096Z,14.62
2022-09-16T19:44:12.575Z,14.53
2022-09-16T19:46:42.651Z,14.54
2022-09-16T19:49:14.939Z,14.51
2022-09-16T19:51:43.300Z,14.52
2022-09-16T19:54:13.169Z,14.49
2022-09-16T19:56:41.214Z,14.45
2022-09-16T19:59:09.729Z,14.47
2022-09-16T20:01:38.607Z,14.41
2022-09-16T20:04:09.246Z,14.39
2022-09-16T20:06:38.884Z,14.45
2022-09-16T20:09:08.860Z,14.43
2022-09-16T20:11:40.382Z,14.42
2022-09-16T20:14:09.609Z,14.44
2022-09-16T20:16:39.269Z,14.41
2022-09-16T20:19:10.497Z,14.33
2022-09-16T20:21:39.195Z,14.28
2022-09-16T20:24:08.738Z,14.29
2022-09-16T20:26:37.404Z,14.24
2022-09-16T20:29:09.397Z,14.15
2022-09-16T20:31:38.544Z,14.21
2022-09-16T20:34:06.990Z,14.19
2022-09-16T20:36:39.320Z,14.17
2022-09-16T20:39:08.940Z,14.12
2022-09-16T20:41:38.213Z,14.13
2022-09-16T20:44:08.021Z,14.16
2022-09-16T20:46:38.752Z,14.17
2022-09-16T20:49:10.711Z,14.15
2022-09-16T20:51:38.869Z,14.15
2022-09-16T20:54:09.393Z,14.15
2022-09-16T20:56:39.842Z,14.12
2022-09-16T20:59:10.566Z,14.14
2022-09-16T21:01:39.855Z,14.09
2022-09-16T21:04:11.271Z,14.11
2022-09-16T21:06:40.095Z,14.13
2022-09-16T21:09:10.219Z,14.09
2022-09-16T21:11:43.685Z,14.11
2022-09-16T21:14:16.212Z,14.11
2022-09-16T21:16:45.796Z,14.11
2022-09-16T21:19:14.160Z,14.11
2022-09-16T21:21:45.981Z,14.09
2022-09-16T21:24:14.165Z,14.06
2022-09-16T21:26:43.929Z,14.05
2022-09-16T21:29:15.598Z,14.06
2022-09-16T21:31:44.377Z,14.13
2022-09-16T21:34:15.253Z,14.13
2022-09-16T21:36:44.964Z,14.11
2022-09-16T21:39:13.555Z,14.15
2022-09-16T21:41:41.493Z,14.19
2022-09-16T21:44:09.450Z,14.18
2022-09-16T21:46:41.516Z,14.15
2022-09-16T21:49:22.587Z,14.15
2022-09-16T21:51:51.128Z,14.11
2022-09-16T21:54:20.469Z,14.11
2022-09-16T21:56:49.208Z,14.13
2022-09-16T21:59:17.545Z,14.10
2022-09-16T22:01:47.455Z,14.14
2022-09-16T22:04:17.453Z,14.19
2022-09-16T22:06:45.347Z,14.26
2022-09-16T22:09:13.473Z,14.30
2022-09-16T22:11:42.855Z,14.34
2022-09-16T22:14:12.340Z,14.39
2022-09-16T22:16:41.468Z,14.39
2022-09-16T22:19:13.075Z,14.45
2022-09-16T22:21:42.416Z,14.42
2022-09-16T22:24:10.725Z,14.45
2022-09-16T22:26:38.836Z,14.52
2022-09-16T22:29:09.037Z,14.56
2022-09-16T22:31:39.096Z,14.56
2022-09-16T22:34:07.052Z,14.51
2022-09-16T22:36:37.671Z,14.47
2022-09-16T22:39:07.486Z,14.51
2022-09-16T22:41:36.064Z,14.58
2022-09-16T22:44:04.543Z,14.62
2022-09-16T22:46:34.397Z,14.68
2022-09-16T22:49:02.614Z,14.76
2022-09-16T22:51:30.614Z,14.81
2022-09-16T22:54:00.033Z,14.82
2022-09-16T22:56:32.087Z,14.83
2022-09-16T22:59:02.591Z,14.83
2022-09-16T23:01:32.919Z,14.84
2022-09-16T23:04:02.870Z,14.89
2022-09-16T23:06:32.248Z,14.90
2022-09-16T23:09:02.008Z,14.90
2022-09-16T23:11:32.544Z,14.87
2022-09-16T23:14:01.509Z,14.94
2022-09-16T23:16:31.307Z,15.00
2022-09-16T23:19:00.785Z,15.03
2022-09-16T23:21:29.524Z,15.08
2022-09-16T23:24:00.975Z,15.08
2022-09-16T23:26:31.965Z,15.08
2022-09-16T23:29:01.686Z,15.10
2022-09-16T23:31:31.239Z,15.11
2022-09-16T23:33:59.732Z,15.06
2022-09-16T23:36:28.875Z,15.10
2022-09-16T23:38:57.030Z,15.07
2022-09-16T23:41:27.718Z,15.03
2022-09-16T23:43:57.883Z,15.06
2022-09-16T23:46:28.807Z,15.07
2022-09-16T23:48:56.745Z,15.05
2022-09-16T23:51:28.511Z,15.02
2022-09-16T23:53:57.660Z,14.96
2022-09-16T23:56:25.894Z,14.81
2022-09-16T23:58:54.022Z,14.75
